Strona główna
METAR-TAF:

METAR-TAF

Lotnisko :

Harry Clever Field

New Philadelphia, Ohio, Stany Zjednoczone

Szerokość geograficzna: 40-28-19N, Długość geograficzna: 081-25-25W, wysokość: 272 m

Aktualna obserwacja pogody

Raport powstał 15 minut temu, godzina 19:53 UTC
Wiatr 8 kt od zachód w porywach dochodzący do 15 kt
Temperatura -8°C
Wilgotność 67%
Ciśnienie 1021 hPa
Widzialność: 11.3 km
Zachmurzenie całkowite na wysokości 2500 ft
słaby śnieg

METAR: KPHD 191953Z AUTO 26008G15KT 7SM -SN OVC025 M08/M13 A3015 RMK AO2 SNE1857B26 SLP223 P0000 T10831133

czas: 15:08 (20:08 UTC)


TAF: brakujący

Obserwacja i prognoza pogody dla ponad 4000 lotnisk (raport METAR i TAF).

Dostępne stacje oznaczono żółtymi i czerwonymi punktami na mapie.

Najedź kursorem aby zobaczyć nazwę stacji.

Kliknij aby zobaczyć obserwacje i prognozy pogody.

Aby zmienić mapę: kliknij na zielony przycisk z czarnym krzyżykiem, aby powiększyć; na zielony przycisk z myślnikiem, aby pomniejszyć; na zielone strzałki, aby przejść do map sąsiednich.


METAR-TAF: